Friday, April 18, 2014
05:35 UTC
  |  Log In   |  Register Free
Airport Search:

Independence Municipal Airport
(KIDP)

FAA data valid effective April 3, 2014 until May 29, 2014 (unless otherwise noted).

 
 
 
 
 
 
 
 
 
 
 
 
 
 

Current Aviation Weather for Independence Municipal Airport (KIDP)

The most recent METAR observation for KIDP was updated at: 0455 UTC
METAR Summary (Translated METAR)
KIDP
180455Z AUTO 36005KT 7SM CLR 03/01 A3029 RMK AO2
KCFV
(10.6 nm SE from KIDP)
180452Z AUTO 35005KT 7SM CLR 05/02 A3029 RMK AO2 SLP258 T00500022
TAF
No TAF information found within 50 nm of KIDP
  Airport Weather Conditions for KIDP

 Current Weather at IDP
37° F
Fair
North winds at 4.6 mph
IDP NOAA Radar

Pressure: 30.28 in
Humidity: 87%
Wind: North at 4.6 MPH (4 KT)
Dew Point: 33.8°F
Visibility: 7.00 mi


Airport Weather Forecast for KIDP

Translated METAR and TAF for KIDP
Translated METAR for KIDP (0535 UTC 18 April 2014)
found at http://aviationweather.gov/adds/metars/
 
METAR text: KIDP 180515Z AUTO 03004KT 7SM CLR 03/01 A3029 RMK AO2
Conditions at: KIDP (INDEPENDENCE , KS, US) observed 0515 UTC 18 April 2014
Temperature: 3.0°C (37°F)
Dewpoint: 1.0°C (34°F) [RH = 87%]
Pressure (altimeter): 30.29 inches Hg (1025.8 mb)
Winds: from the NNE (30 degrees) at 5 MPH (4 knots; 2.1 m/s)
Visibility: 7 miles (11 km)
Ceiling: at least 12,000 feet AGL
Clouds: sky clear below 12,000 feet AGL
Weather: automated observation with no human augmentation;
there may or may not be significant weather present at this time
Translated TAF for KIDP

There is no translated TAF available for this airport

Find All Airport Services Find A Hotel Find A Rental Car Find A Golf Course Find A Restaurant $100 Hamburger



FBO's on the Field
FBO Company Facility Photos Services Transportation Aviation Fuel Prices: Prices include tax
Catering Weather Repair Courtesy Rental Type 100LL JetA JetA+ MOGAS 8087
 
City of Independence

This FBO has not yet been rated
FS:Phillips66
Last Updated: Mar-25
Login to update fuel prices
SS:
Contact City of IndependenceMore FBO Information
 
Add another FBO Facility Photos Catering Weather Repair Courtesy Rental Type 100LL JetA JetA+ MOGAS 8087
Services Transportation Aviation Fuel Prices: Prices include tax


GlobalAir.com Airport Resource Center model-print
model-print
model-print
model-print